メインページ
METAR-TAF:

METAR-TAF

空港 :

Al-Hasa, サウジアラビア

緯度: 25-18N, 経度: 049-29E, 海抜: 179m

現時点の気象観測

当レポートは1時間6分前の17:00(UTC)に作成
の風 8kt
気温 25°C
湿度 44%
気圧 1016 hPa
視程10km以上
高度4000ftの千切れ雲あり

METAR: OEAH 171700Z 19008KT 9999 RA BKN040 25/12 Q1016 NOSIG

時間: 21:06 (18:06 UTC)

予報

当レポートは7時間6分前の11:00(UTC)に作成
予報は17日の 12時(UTC)から 18日の 18時(UTC)まで有効
西/南西の風 14kt
視程10km以上
高度4000ftの雲はほとんどない
高度10000ftの雲は散在している
17日の 12時(UTC)から 17日の 18時(UTC)まで一時的に
視程: 7000m
高度3500ftの雲はほとんどない, 積乱雲.
高度4000ftの雲は散在している
風塵, 激しい雷雨, 雨
17日の 18時(UTC)から 17日の 20時(UTC)まで徐々に
変向風 3kt

TAF: OEAH 171100Z 1712/1818 24014KT 9999 FEW040 SCT100 TEMPO 1712/1718 7000 BLDU TSRA FEW035CB SCT040 BECMG 1718/1720 VRB03KT

4,000以上の空港の気象観測と天気予報(METAR報とTAF報)

利用可能な観測所は地図上に黄色い丸と赤い丸で示す。

丸の上にカーソルを重ねると観測所名を参照できる。

次にクリックすると気象観測と天気予報を参照できる。

マップの切り替え:黒色「×」印の緑ボタンをクリックして拡大、「-」印の緑ボタンをクリックして縮小、緑色の三角印をクリックして隣りの地図に切り替え


METAR-TAF: